Detall de PIREP

Printer-friendly versionPDF version

[2012/09/14 07:53:00]
Flight IATA:CT3412
Pilot Number:042
Company ICAO:CAT
Aircraft Type:MD11/E
PAX:303
Aircraft Registration:PAX
Departing Airport: LEBL
Destination Airport: UUEE
Alternate Airport:ULLI
Online: VATSIM
Route: DALIN UN870 ADITA UL127 STP UM985 ABN UQ985 ABLOM UL725 LEDRI UM985 JAN UM866 DBV UL999 SUPAK L999 BIGLU UL999 MNS UT52 MOSON A104 FK FK2T UM
Flight Level:F370
No Slew and time accel
No pause
Crash detect
Detect pilot in Cockpit between each 30 and 45 minutes
07:53 Zero fuel Weight: 377775 Lbs, Fuel Weight: 77363 Lbs
07:53 VATSIM:LEBL 140730Z 33011KT 280V010 9999 FEW025 20/07 Q1015 NOSIG
07:53 VATSIM:UUEE 140700Z 22004MPS 170V240 CAVOK 17/09 Q1014 NOSIG
07:53 VOICE CATALONIAN
07:59 Parking Brakes off
08:12 Take-off
08:12 Take off Weight: 476144 Lbs
08:12 Wind: 329º @ 011 Knots Heading: 247º
08:12 POS N41º 17´ 05´´ E002º 04´ 52´´
08:12 Gear Up: 170 Knots
08:12 Flaps:5 at 170 Knots
08:13 Flaps:4 at 185 Knots
08:13 Flaps:3 at 190 Knots
08:13 Flaps:2 at 192 Knots
08:13 Flaps:1 at 194 Knots
08:14 Flaps:0 at 257 Knots
08:27 Wind:002º@049 Knots Heading: 041º Ground Speed: 449 Knots Altitude 29770 ft
08:31 TOC
08:31 Fuel Weight: 87797 Lb
08:42 Wind:012º@080 Knots Heading: 050º Ground Speed: 406 Knots Altitude 36968 ft
08:57 Wind:008º@094 Knots Heading: 045º Ground Speed: 399 Knots Altitude 36876 ft
09:12 Wind:019º@105 Knots Heading: 039º Ground Speed: 375 Knots Altitude 36873 ft
09:27 Wind:022º@096 Knots Heading: 045º Ground Speed: 381 Knots Altitude 36902 ft
09:42 Wind:028º@088 Knots Heading: 048º Ground Speed: 382 Knots Altitude 37004 ft
09:57 Wind:029º@057 Knots Heading: 061º Ground Speed: 414 Knots Altitude 37093 ft
10:12 Wind:023º@042 Knots Heading: 063º Ground Speed: 426 Knots Altitude 37122 ft
10:27 Wind:005º@026 Knots Heading: 053º Ground Speed: 441 Knots Altitude 37030 ft
10:42 Wind:342º@025 Knots Heading: 041º Ground Speed: 441 Knots Altitude 37066 ft
10:57 Wind:309º@024 Knots Heading: 042º Ground Speed: 456 Knots Altitude 37050 ft
11:12 Wind:318º@024 Knots Heading: 034º Ground Speed: 448 Knots Altitude 37014 ft
11:27 Wind:255º@037 Knots Heading: 063º Ground Speed: 490 Knots Altitude 36961 ft
11:42 Wind:260º@038 Knots Heading: 066º Ground Speed: 492 Knots Altitude 36916 ft
11:53 TOD
11:53 Fuel Weight: 38261 Lb
11:57 Wind:261º@036 Knots Heading: 069º Ground Speed: 506 Knots Altitude 32178 ft
12:09 Flaps:1 at 247 Knots
12:12 Wind:229º@016 Knots Heading: 071º Ground Speed: 290 Knots Altitude 6633 ft
12:12 Flaps:2 at 247 Knots
12:12 Flaps:3 at 245 Knots
12:12 Flaps:4 at 243 Knots
12:15 Flaps:5 at 181 Knots
12:16 Flaps:6 at 182 Knots
12:17 Gear Down: 201 Knots
12:17 Flaps:7 at 202 Knots
12:17 Flaps:6 at 202 Knots
12:17 Flaps:7 at 195 Knots
12:17 Flaps:6 at 194 Knots
12:17 Flaps:7 at 189 Knots
12:18 Flaps:8 at 174 Knots
12:19 TouchDown:Rate -193 ft/min Speed: 158 Knots
12:19 VATSIM:UUEE 141130Z 23005MPS CAVOK 23/06 Q1012 NOSIG
12:19 Land
12:19 Wind:191º@011 Knots
12:19 Heading: 255º
12:19 Flight Duration: 04:07
12:19 Landing Weight: 411779 Lbs
12:19 POS N55º 58´ 26´´ E037º 24´ 50´´
12:27 Parking brakes on
12:27 Block to Block Duration: 04:28
12:27 Final Fuel: 33295 Lbls
12:27 Spent Fuel: 44067 Lbls
12:27 Flight Length: 1619 NM
12:27 TOD Land Length: 150 NM

Exportar CSV

Powered by Drupal - Modified by Danger4k